createdAt,value
2019-01-19T00:01:02.842Z,7.20
2019-01-19T00:05:10.593Z,7.00
2019-01-19T00:08:24.180Z,7.43
2019-01-19T00:11:49.594Z,8.20
2019-01-19T00:14:40.279Z,8.40
2019-01-19T00:18:31.395Z,7.60
2019-01-19T00:21:38.424Z,8.48
2019-01-19T00:24:57.314Z,7.97
2019-01-19T00:28:19.921Z,8.37
2019-01-19T00:31:19.124Z,7.63
2019-01-19T00:34:48.221Z,7.93
2019-01-19T00:37:48.729Z,9.57
2019-01-19T00:41:16.512Z,9.20
2019-01-19T00:44:22.930Z,7.50
2019-01-19T00:47:53.389Z,8.93
2019-01-19T00:51:39.544Z,9.60
2019-01-19T00:54:38.207Z,7.60
2019-01-19T00:58:05.970Z,8.40
2019-01-19T01:00:55.480Z,8.03
2019-01-19T01:04:17.722Z,8.20
2019-01-19T01:07:59.052Z,8.20
2019-01-19T01:10:49.793Z,8.53
2019-01-19T01:14:35.920Z,7.77
2019-01-19T01:17:49.391Z,8.27
2019-01-19T01:20:49.013Z,8.75
2019-01-19T01:24:16.280Z,8.97
2019-01-19T01:27:21.048Z,7.57
2019-01-19T01:30:34.379Z,8.23
2019-01-19T01:33:50.821Z,8.00
2019-01-19T01:37:28.021Z,7.65
2019-01-19T01:40:49.360Z,7.33
2019-01-19T01:44:14.028Z,8.77
2019-01-19T01:47:54.041Z,8.43
2019-01-19T01:50:45.629Z,8.47
2019-01-19T01:54:04.412Z,9.77
2019-01-19T01:56:37.798Z,7.60
2019-01-19T02:00:08.743Z,8.37
2019-01-19T02:03:34.426Z,9.03
2019-01-19T02:07:24.570Z,8.57
2019-01-19T02:10:49.833Z,7.97
2019-01-19T02:13:47.198Z,7.83
2019-01-19T02:17:17.442Z,7.87
2019-01-19T02:20:32.839Z,8.20
2019-01-19T02:23:43.773Z,8.87
2019-01-19T02:27:43.305Z,9.07
2019-01-19T02:31:17.688Z,7.77
2019-01-19T02:34:43.360Z,7.53
2019-01-19T02:38:09.475Z,7.83
2019-01-19T02:41:22.486Z,8.57
2019-01-19T02:44:53.591Z,8.30
2019-01-19T02:48:18.193Z,8.43
2019-01-19T02:51:19.987Z,6.60
2019-01-19T02:55:09.987Z,8.27
2019-01-19T02:59:00.580Z,7.10
2019-01-19T03:02:02.857Z,7.73
2019-01-19T03:05:08.793Z,7.73
2019-01-19T03:08:11.262Z,7.57
2019-01-19T03:11:43.842Z,7.97
2019-01-19T03:15:27.419Z,6.13
2019-01-19T03:18:51.238Z,7.60
2019-01-19T03:22:13.960Z,7.10
2019-01-19T03:25:29.255Z,7.25
2019-01-19T03:28:55.148Z,9.30
2019-01-19T03:32:15.002Z,7.00
2019-01-19T03:35:34.192Z,6.70
2019-01-19T03:38:42.300Z,7.85
2019-01-19T03:42:07.474Z,7.50
2019-01-19T03:45:04.228Z,6.97
2019-01-19T03:48:07.953Z,8.03
2019-01-19T03:51:27.520Z,8.40
2019-01-19T03:54:56.030Z,7.80
2019-01-19T03:57:52.567Z,7.10
2019-01-19T04:01:11.265Z,8.00
2019-01-19T04:04:18.946Z,7.67
2019-01-19T04:07:16.660Z,8.03
2019-01-19T04:10:52.678Z,8.70
2019-01-19T04:14:18.678Z,8.30
2019-01-19T04:17:52.601Z,7.60
2019-01-19T04:21:14.940Z,7.43
2019-01-19T04:23:53.973Z,7.57
2019-01-19T04:26:44.785Z,8.27
2019-01-19T04:29:16.410Z,7.20
2019-01-19T04:31:48.054Z,8.03
2019-01-19T04:34:20.042Z,6.97
2019-01-19T04:36:52.032Z,8.40
2019-01-19T04:39:23.652Z,9.30
2019-01-19T04:41:55.715Z,7.67
2019-01-19T04:44:27.334Z,8.30
2019-01-19T04:46:58.975Z,8.00
2019-01-19T04:49:30.565Z,7.47
2019-01-19T04:52:02.270Z,7.87
2019-01-19T04:54:33.973Z,8.40
2019-01-19T04:57:06.177Z,7.80
2019-01-19T04:59:38.870Z,7.87
2019-01-19T05:02:10.596Z,9.98
2019-01-19T05:04:42.208Z,9.20
2019-01-19T05:07:13.810Z,7.90
2019-01-19T05:09:45.455Z,8.60
2019-01-19T05:12:17.872Z,8.37
2019-01-19T05:14:49.491Z,7.30
2019-01-19T05:17:21.124Z,8.70
2019-01-19T05:19:52.786Z,8.17
2019-01-19T05:22:25.607Z,7.93
2019-01-19T05:24:57.467Z,7.23
2019-01-19T05:27:31.502Z,8.17
2019-01-19T05:30:03.129Z,8.63
2019-01-19T05:32:34.995Z,8.47
2019-01-19T05:35:27.190Z,7.73
2019-01-19T05:37:58.837Z,8.43
2019-01-19T05:40:30.466Z,7.80
2019-01-19T05:43:02.754Z,7.50
2019-01-19T05:45:33.429Z,7.80
2019-01-19T05:48:02.676Z,8.00
2019-01-19T05:50:34.411Z,8.40
2019-01-19T05:53:06.230Z,8.80
2019-01-19T05:55:41.272Z,7.67
2019-01-19T05:58:12.896Z,8.20
2019-01-19T06:00:45.126Z,8.67
2019-01-19T06:03:16.743Z,10.05
2019-01-19T06:05:49.060Z,8.60
2019-01-19T06:08:20.669Z,8.20
2019-01-19T06:10:52.283Z,8.30
2019-01-19T06:13:23.905Z,8.17
2019-01-19T06:15:56.001Z,9.10
2019-01-19T06:18:29.195Z,10.03
2019-01-19T06:21:01.034Z,9.20
2019-01-19T06:23:32.731Z,7.57
2019-01-19T06:26:04.435Z,9.17
2019-01-19T06:28:37.069Z,8.00
2019-01-19T06:31:09.116Z,8.57
2019-01-19T06:33:40.819Z,8.87
2019-01-19T06:36:13.178Z,11.40
2019-01-19T06:38:44.830Z,9.80
2019-01-19T06:41:16.503Z,10.23
2019-01-19T06:43:48.147Z,8.87
2019-01-19T06:46:20.464Z,8.60
2019-01-19T06:48:54.918Z,8.17
2019-01-19T06:51:31.366Z,7.97
2019-01-19T06:54:03.251Z,7.77
2019-01-19T06:56:34.920Z,8.00
2019-01-19T06:59:09.021Z,9.07
2019-01-19T07:01:40.729Z,16.77
2019-01-19T07:04:13.077Z,19.60
2019-01-19T07:06:46.551Z,15.40
2019-01-19T07:09:18.290Z,27.20
2019-01-19T07:11:50.220Z,21.23
2019-01-19T07:14:22.439Z,18.97
2019-01-19T07:16:55.529Z,16.87
2019-01-19T07:19:27.879Z,14.40
2019-01-19T07:21:59.534Z,12.80
2019-01-19T07:24:32.651Z,10.87
2019-01-19T07:27:15.613Z,13.17
2019-01-19T07:29:48.438Z,23.20
2019-01-19T07:32:20.134Z,22.60
2019-01-19T07:34:52.262Z,18.85
2019-01-19T07:37:23.922Z,13.45
2019-01-19T07:39:55.548Z,12.33
2019-01-19T07:42:27.162Z,10.17
2019-01-19T07:44:58.843Z,9.90
2019-01-19T07:47:31.139Z,9.37
2019-01-19T07:50:05.256Z,9.77
2019-01-19T07:52:36.952Z,9.97
2019-01-19T07:55:11.090Z,11.18
2019-01-19T07:57:42.934Z,10.28
2019-01-19T08:00:28.118Z,9.87
2019-01-19T08:02:59.838Z,10.58
2019-01-19T08:05:32.405Z,9.90
2019-01-19T08:08:04.043Z,10.07
2019-01-19T08:10:36.105Z,10.03
2019-01-19T08:13:07.900Z,9.87
2019-01-19T08:15:39.662Z,8.83
2019-01-19T08:18:11.728Z,8.47
2019-01-19T08:20:44.798Z,8.83
2019-01-19T08:23:17.441Z,8.00
2019-01-19T08:25:49.207Z,8.27
2019-01-19T08:28:20.875Z,8.17
2019-01-19T08:30:52.666Z,7.67
2019-01-19T08:33:24.475Z,7.90
2019-01-19T08:35:56.978Z,9.53
2019-01-19T08:38:28.630Z,8.33
2019-01-19T08:41:00.426Z,15.00
2019-01-19T08:43:37.821Z,14.40
2019-01-19T08:46:09.779Z,12.00
2019-01-19T08:48:41.579Z,13.10
2019-01-19T08:51:32.457Z,13.03
2019-01-19T08:54:12.457Z,11.90
2019-01-19T08:56:54.965Z,15.20
2019-01-19T08:59:45.258Z,12.67
2019-01-19T09:02:27.114Z,11.30
2019-01-19T09:05:19.148Z,12.47
2019-01-19T09:07:58.623Z,11.20
2019-01-19T09:10:34.800Z,10.20
2019-01-19T09:13:06.771Z,8.70
2019-01-19T09:15:39.293Z,9.07
2019-01-19T09:18:17.470Z,9.00
2019-01-19T09:20:54.992Z,9.10
2019-01-19T09:23:34.607Z,9.37
2019-01-19T09:26:06.706Z,8.27
2019-01-19T09:28:38.440Z,7.87
2019-01-19T09:31:10.405Z,7.87
2019-01-19T09:33:42.246Z,7.47
2019-01-19T09:36:14.040Z,7.97
2019-01-19T09:38:46.382Z,8.10
2019-01-19T09:41:18.081Z,8.17
2019-01-19T09:43:50.191Z,8.00
2019-01-19T09:46:22.859Z,7.37
2019-01-19T09:48:54.760Z,7.40
2019-01-19T09:51:26.808Z,9.30
2019-01-19T09:53:59.495Z,11.20
2019-01-19T09:56:31.295Z,9.23
2019-01-19T09:59:03.597Z,8.80
2019-01-19T10:01:35.385Z,8.37
2019-01-19T10:04:07.304Z,7.20
2019-01-19T10:06:39.486Z,7.77
2019-01-19T10:09:11.895Z,8.33
2019-01-19T10:11:43.647Z,8.70
2019-01-19T10:14:15.323Z,8.53
2019-01-19T10:16:47.044Z,7.90
2019-01-19T10:19:18.948Z,8.00
2019-01-19T10:21:50.631Z,8.00
2019-01-19T10:24:32.568Z,7.87
2019-01-19T10:27:04.346Z,7.57
2019-01-19T10:29:36.202Z,7.70
2019-01-19T10:32:07.850Z,7.80
2019-01-19T10:34:39.725Z,8.13
2019-01-19T10:37:11.465Z,7.60
2019-01-19T10:39:43.834Z,6.80
2019-01-19T10:42:15.603Z,8.33
2019-01-19T10:44:47.334Z,7.67
2019-01-19T10:47:18.963Z,6.10
2019-01-19T10:49:50.706Z,6.80
2019-01-19T10:52:22.428Z,7.97
2019-01-19T10:54:54.065Z,7.70
2019-01-19T10:57:27.189Z,7.47
2019-01-19T10:59:59.055Z,7.17
2019-01-19T11:02:30.785Z,7.97
2019-01-19T11:05:02.749Z,7.93
2019-01-19T11:07:34.884Z,7.27
2019-01-19T11:10:10.074Z,9.37
2019-01-19T11:12:42.440Z,7.17
2019-01-19T11:15:16.008Z,8.93
2019-01-19T11:17:47.738Z,8.67
2019-01-19T11:20:25.706Z,8.13
2019-01-19T11:22:58.785Z,7.83
2019-01-19T11:25:30.576Z,8.50
2019-01-19T11:28:03.128Z,9.27
2019-01-19T11:30:34.859Z,9.03
2019-01-19T11:33:06.848Z,9.27
2019-01-19T11:35:38.550Z,8.13
2019-01-19T11:38:11.974Z,8.40
2019-01-19T11:40:43.650Z,8.83
2019-01-19T11:43:16.055Z,7.77
2019-01-19T11:45:47.720Z,9.20
2019-01-19T11:48:19.377Z,9.60
2019-01-19T11:50:51.032Z,8.37
2019-01-19T11:53:23.005Z,10.40
2019-01-19T11:55:54.664Z,12.60
2019-01-19T11:58:28.684Z,10.20
2019-01-19T12:01:00.476Z,10.70
2019-01-19T12:03:32.252Z,11.50
2019-01-19T12:06:04.559Z,12.63
2019-01-19T12:08:36.766Z,11.50
2019-01-19T12:11:08.513Z,12.23
2019-01-19T12:13:40.882Z,9.53
2019-01-19T12:16:14.038Z,8.57
2019-01-19T12:18:45.786Z,8.60
2019-01-19T12:21:17.466Z,9.70
2019-01-19T12:23:49.257Z,8.63
2019-01-19T12:26:21.111Z,7.93
2019-01-19T12:28:53.911Z,7.90
2019-01-19T12:31:25.864Z,8.30
2019-01-19T12:33:57.647Z,8.40
2019-01-19T12:36:29.631Z,9.57
2019-01-19T12:39:01.299Z,8.60
2019-01-19T12:41:33.010Z,9.00
2019-01-19T12:44:05.039Z,9.67
2019-01-19T12:46:37.352Z,9.47
2019-01-19T12:49:09.155Z,9.77
2019-01-19T12:51:49.138Z,8.50
2019-01-19T12:54:23.017Z,9.77
2019-01-19T12:57:01.744Z,9.10
2019-01-19T12:59:35.149Z,7.80
2019-01-19T13:02:09.808Z,7.63
2019-01-19T13:04:43.189Z,6.60
2019-01-19T13:07:21.791Z,8.63
2019-01-19T13:10:13.736Z,8.83
2019-01-19T13:13:15.363Z,8.70
2019-01-19T13:16:41.291Z,9.50
2019-01-19T13:19:56.626Z,9.97
2019-01-19T13:23:16.168Z,7.97
2019-01-19T13:26:58.465Z,9.10
2019-01-19T13:30:35.395Z,9.47
2019-01-19T13:33:51.044Z,8.67
2019-01-19T13:37:05.348Z,8.77
2019-01-19T13:40:37.306Z,8.40
2019-01-19T13:44:13.500Z,8.10
2019-01-19T13:48:16.138Z,9.30
2019-01-19T13:51:44.999Z,9.20
2019-01-19T13:55:41.032Z,9.20
2019-01-19T13:58:57.716Z,7.43
2019-01-19T14:02:29.594Z,9.20
2019-01-19T14:05:55.047Z,9.60
2019-01-19T14:09:13.293Z,10.93
2019-01-19T14:12:40.181Z,10.00
2019-01-19T14:15:47.304Z,10.30
2019-01-19T14:19:02.923Z,10.80
2019-01-19T14:22:38.135Z,10.27
2019-01-19T14:26:36.422Z,10.10
2019-01-19T14:30:11.414Z,9.07
2019-01-19T14:33:41.784Z,10.43
2019-01-19T14:37:18.416Z,8.47
2019-01-19T14:40:35.789Z,10.33
2019-01-19T14:44:00.777Z,8.87
2019-01-19T14:47:16.890Z,10.87
2019-01-19T14:50:44.297Z,9.87
2019-01-19T14:54:45.575Z,9.10
2019-01-19T14:57:37.416Z,9.70
2019-01-19T15:01:16.853Z,10.53
2019-01-19T15:04:52.033Z,8.77
2019-01-19T15:08:05.970Z,9.60
2019-01-19T15:11:31.172Z,10.77
2019-01-19T15:15:32.970Z,11.47
2019-01-19T15:19:08.629Z,11.10
2019-01-19T15:22:21.628Z,10.40
2019-01-19T15:25:48.718Z,13.17
2019-01-19T15:29:29.030Z,14.53
2019-01-19T15:32:43.214Z,11.63
2019-01-19T15:36:23.050Z,10.63
2019-01-19T15:40:02.257Z,11.17
2019-01-19T15:43:05.883Z,10.73
2019-01-19T15:46:29.896Z,11.00
2019-01-19T15:49:56.806Z,10.53
2019-01-19T15:54:05.019Z,9.40
2019-01-19T15:57:22.964Z,12.97
2019-01-19T16:00:34.223Z,29.27
2019-01-19T16:04:04.419Z,18.70
2019-01-19T16:07:44.837Z,13.27
2019-01-19T16:11:03.916Z,10.57
2019-01-19T16:14:30.090Z,10.00
2019-01-19T16:17:50.516Z,10.80
2019-01-19T16:22:05.173Z,11.47
2019-01-19T16:25:26.157Z,10.80
2019-01-19T16:28:46.685Z,12.60
2019-01-19T16:32:14.707Z,11.13
2019-01-19T16:35:38.843Z,10.50
2019-01-19T16:39:11.745Z,11.90
2019-01-19T16:42:41.390Z,12.60
2019-01-19T16:46:15.805Z,11.03
2019-01-19T16:49:58.651Z,13.40
2019-01-19T16:53:28.964Z,12.10
2019-01-19T16:57:02.038Z,10.70
2019-01-19T17:00:33.845Z,11.17
2019-01-19T17:04:01.597Z,12.60
2019-01-19T17:07:11.356Z,11.20
2019-01-19T17:10:19.741Z,11.40
2019-01-19T17:13:38.337Z,10.97
2019-01-19T17:17:18.845Z,12.27
2019-01-19T17:20:24.167Z,11.43
2019-01-19T17:23:31.259Z,12.33
2019-01-19T17:27:13.614Z,12.37
2019-01-19T17:34:52.325Z,13.37
2019-01-19T17:37:46.876Z,14.17
2019-01-19T17:41:18.156Z,13.40
2019-01-19T17:44:22.145Z,14.60
2019-01-19T17:47:41.098Z,10.90
2019-01-19T17:50:54.809Z,11.87
2019-01-19T17:54:23.615Z,12.80
2019-01-19T17:57:39.022Z,13.40
2019-01-19T18:01:11.181Z,12.97
2019-01-19T18:04:21.908Z,14.07
2019-01-19T18:08:19.734Z,14.83
2019-01-19T18:11:58.581Z,15.80
2019-01-19T18:15:54.975Z,14.07
2019-01-19T18:19:15.271Z,12.67
2019-01-19T18:22:56.059Z,13.33
2019-01-19T18:26:43.691Z,12.90
2019-01-19T18:30:10.803Z,13.50
2019-01-19T18:33:52.852Z,13.20
2019-01-19T18:37:05.399Z,13.80
2019-01-19T18:40:23.798Z,14.17
2019-01-19T18:43:36.888Z,12.27
2019-01-19T18:47:42.690Z,12.37
2019-01-19T18:51:26.747Z,12.80
2019-01-19T18:55:10.422Z,13.07
2019-01-19T18:58:54.531Z,12.50
2019-01-19T19:02:22.382Z,11.57
2019-01-19T19:06:10.233Z,12.37
2019-01-19T19:09:32.676Z,11.43
2019-01-19T19:12:52.149Z,14.00
2019-01-19T19:16:21.255Z,13.17
2019-01-19T19:19:53.619Z,12.30
2019-01-19T19:23:51.676Z,11.13
2019-01-19T19:27:21.385Z,12.53
2019-01-19T19:30:40.653Z,12.57
2019-01-19T19:33:48.874Z,14.60
2019-01-19T19:36:52.377Z,15.90
2019-01-19T19:40:09.690Z,15.77
2019-01-19T19:43:08.954Z,14.53
2019-01-19T19:46:52.055Z,14.77
2019-01-19T19:50:32.835Z,14.80
2019-01-19T19:53:04.717Z,13.47
2019-01-19T19:55:34.483Z,15.63
2019-01-19T19:58:06.517Z,14.43
2019-01-19T20:00:38.661Z,15.27
2019-01-19T20:03:11.629Z,16.73
2019-01-19T20:05:43.448Z,15.27
2019-01-19T20:08:16.908Z,18.50
2019-01-19T20:10:48.794Z,15.97
2019-01-19T20:13:20.979Z,18.93
2019-01-19T20:15:52.801Z,21.03
2019-01-19T20:18:24.817Z,20.80
2019-01-19T20:20:56.596Z,19.70
2019-01-19T20:23:28.408Z,18.57
2019-01-19T20:26:01.222Z,18.37
2019-01-19T20:28:33.589Z,16.97
2019-01-19T20:31:05.640Z,17.97
2019-01-19T20:33:37.424Z,16.63
2019-01-19T20:36:12.232Z,19.00
2019-01-19T20:38:44.574Z,18.27
2019-01-19T20:41:16.363Z,16.70
2019-01-19T20:43:49.178Z,16.80
2019-01-19T20:46:20.990Z,17.03
2019-01-19T20:48:52.936Z,17.70
2019-01-19T20:51:25.245Z,17.40
2019-01-19T20:53:57.376Z,17.77
2019-01-19T20:56:29.583Z,17.30
2019-01-19T20:59:02.454Z,17.83
2019-01-19T21:01:34.339Z,17.40
2019-01-19T21:04:06.302Z,18.43
2019-01-19T21:06:38.040Z,20.27
2019-01-19T21:09:12.060Z,17.97
2019-01-19T21:11:43.806Z,17.47
2019-01-19T21:14:16.010Z,18.30
2019-01-19T21:16:49.126Z,17.10
2019-01-19T21:19:21.018Z,22.60
2019-01-19T21:21:52.915Z,19.37
2019-01-19T21:24:24.669Z,19.03
2019-01-19T21:26:56.422Z,20.17
2019-01-19T21:29:28.710Z,18.87
2019-01-19T21:32:00.564Z,20.07
2019-01-19T21:34:32.269Z,18.23
2019-01-19T21:37:04.094Z,19.33
2019-01-19T21:39:35.858Z,17.40
2019-01-19T21:42:07.610Z,18.60
2019-01-19T21:44:39.764Z,18.30
2019-01-19T21:47:11.542Z,16.83
2019-01-19T21:49:43.331Z,17.03
2019-01-19T21:52:15.231Z,16.47
2019-01-19T21:54:47.121Z,16.97
2019-01-19T21:57:18.838Z,16.80
2019-01-19T21:59:51.841Z,18.87
2019-01-19T22:02:23.581Z,16.90
2019-01-19T22:04:55.337Z,18.03
2019-01-19T22:07:27.077Z,17.40
2019-01-19T22:09:59.114Z,17.30
2019-01-19T22:12:32.664Z,17.40
2019-01-19T22:15:05.830Z,17.73
2019-01-19T22:17:39.818Z,17.83
2019-01-19T22:20:13.086Z,17.80
2019-01-19T22:22:44.780Z,17.53
2019-01-19T22:25:16.639Z,16.47
2019-01-19T22:27:49.660Z,17.53
2019-01-19T22:30:24.197Z,17.97
2019-01-19T22:32:57.544Z,18.70
2019-01-19T22:35:30.439Z,18.70
2019-01-19T22:38:03.226Z,17.50
2019-01-19T22:40:35.036Z,19.07
2019-01-19T22:43:10.412Z,19.40
2019-01-19T22:45:42.249Z,16.20
2019-01-19T22:48:14.383Z,17.40
2019-01-19T22:50:46.127Z,18.73
2019-01-19T22:53:17.847Z,18.93
2019-01-19T22:55:50.098Z,17.67
2019-01-19T22:58:22.650Z,18.40
2019-01-19T23:01:24.937Z,18.20
2019-01-19T23:03:57.194Z,18.63
2019-01-19T23:06:30.281Z,18.23
2019-01-19T23:09:02.064Z,18.03
2019-01-19T23:11:34.172Z,17.30
2019-01-19T23:14:08.469Z,17.57
2019-01-19T23:16:40.893Z,18.77
2019-01-19T23:19:12.951Z,19.53
2019-01-19T23:21:44.626Z,21.20
2019-01-19T23:24:16.299Z,21.87
2019-01-19T23:26:48.339Z,21.10
2019-01-19T23:29:19.995Z,19.73
2019-01-19T23:31:51.672Z,21.07
2019-01-19T23:34:23.705Z,21.97
2019-01-19T23:36:55.332Z,22.07
2019-01-19T23:39:27.012Z,22.10
2019-01-19T23:41:58.634Z,21.30
2019-01-19T23:44:31.100Z,25.07
2019-01-19T23:47:02.788Z,25.10
2019-01-19T23:49:34.823Z,24.50
2019-01-19T23:52:06.931Z,34.43
2019-01-19T23:54:38.577Z,31.37
2019-01-19T23:57:10.296Z,25.30
2019-01-19T23:59:41.963Z,23.17
